sensor_id;sensor_type;location;lat;lon;timestamp;pressure;altitude;pressure_sealevel;temperature;humidity
70902;BME280;58548;47.210;8.618;2024-01-30T00:01:11;95438.16;;;10.70;35.75
70902;BME280;58548;47.210;8.618;2024-01-30T00:03:39;95454.22;;;10.84;35.50
70902;BME280;58548;47.210;8.618;2024-01-30T00:06:07;95413.31;;;10.58;35.88
70902;BME280;58548;47.210;8.618;2024-01-30T00:08:34;95449.75;;;10.68;35.52
70902;BME280;58548;47.210;8.618;2024-01-30T00:11:00;95480.88;;;10.88;35.25
70902;BME280;58548;47.210;8.618;2024-01-30T00:13:28;95457.94;;;10.73;35.78
70902;BME280;58548;47.210;8.618;2024-01-30T00:15:54;95470.56;;;10.78;35.66
70902;BME280;58548;47.210;8.618;2024-01-30T00:18:23;95476.28;;;10.81;35.94
70902;BME280;58548;47.210;8.618;2024-01-30T00:20:50;95456.09;;;10.65;35.59
70902;BME280;58548;47.210;8.618;2024-01-30T00:23:16;95480.84;;;10.79;35.24
70902;BME280;58548;47.210;8.618;2024-01-30T00:25:42;95476.75;;;10.77;35.17
70902;BME280;58548;47.210;8.618;2024-01-30T00:28:08;95479.19;;;10.78;35.25
70902;BME280;58548;47.210;8.618;2024-01-30T00:30:35;95470.84;;;10.75;35.17
70902;BME280;58548;47.210;8.618;2024-01-30T00:33:04;95443.31;;;10.54;35.51
70902;BME280;58548;47.210;8.618;2024-01-30T00:35:30;95479.66;;;10.74;35.77
70902;BME280;58548;47.210;8.618;2024-01-30T00:38:02;95479.81;;;10.72;35.36
70902;BME280;58548;47.210;8.618;2024-01-30T00:40:28;95466.56;;;10.65;35.22
70902;BME280;58548;47.210;8.618;2024-01-30T00:42:54;95467.53;;;10.64;35.62
70902;BME280;58548;47.210;8.618;2024-01-30T00:45:20;95473.09;;;10.69;35.79
70902;BME280;58548;47.210;8.618;2024-01-30T00:47:46;95459.50;;;10.58;35.55
70902;BME280;58548;47.210;8.618;2024-01-30T00:50:12;95478.94;;;10.63;35.98
70902;BME280;58548;47.210;8.618;2024-01-30T00:52:41;95463.25;;;10.55;35.16
70902;BME280;58548;47.210;8.618;2024-01-30T00:55:10;95474.38;;;10.57;35.85
70902;BME280;58548;47.210;8.618;2024-01-30T00:57:36;95471.75;;;10.57;35.29
70902;BME280;58548;47.210;8.618;2024-01-30T01:00:05;95454.38;;;10.48;35.55
70902;BME280;58548;47.210;8.618;2024-01-30T01:02:36;95475.66;;;10.61;35.89
70902;BME280;58548;47.210;8.618;2024-01-30T01:05:05;95477.00;;;10.65;35.80
70902;BME280;58548;47.210;8.618;2024-01-30T01:07:33;95470.31;;;10.63;35.60
70902;BME280;58548;47.210;8.618;2024-01-30T01:09:59;95478.66;;;10.66;35.14
70902;BME280;58548;47.210;8.618;2024-01-30T01:12:25;95481.25;;;10.66;35.24
70902;BME280;58548;47.210;8.618;2024-01-30T01:14:51;95462.28;;;10.56;35.35
70902;BME280;58548;47.210;8.618;2024-01-30T01:17:17;95450.31;;;10.45;35.52
70902;BME280;58548;47.210;8.618;2024-01-30T01:19:44;95455.72;;;10.52;35.68
70902;BME280;58548;47.210;8.618;2024-01-30T01:22:10;95465.22;;;10.61;35.87
70902;BME280;58548;47.210;8.618;2024-01-30T01:24:36;95472.72;;;10.56;35.47
70902;BME280;58548;47.210;8.618;2024-01-30T01:27:03;95452.91;;;10.45;35.36
70902;BME280;58548;47.210;8.618;2024-01-30T01:29:29;95443.22;;;10.37;35.68
70902;BME280;58548;47.210;8.618;2024-01-30T01:31:55;95451.28;;;10.44;35.55
70902;BME280;58548;47.210;8.618;2024-01-30T01:34:21;95442.00;;;10.32;35.56
70902;BME280;58548;47.210;8.618;2024-01-30T01:36:50;95478.44;;;10.60;35.74
70902;BME280;58548;47.210;8.618;2024-01-30T01:39:17;95473.22;;;10.60;35.48
70902;BME280;58548;47.210;8.618;2024-01-30T01:41:43;95475.03;;;10.59;35.20
70902;BME280;58548;47.210;8.618;2024-01-30T01:44:12;95472.41;;;10.59;35.15
70902;BME280;58548;47.210;8.618;2024-01-30T01:46:40;95473.69;;;10.55;34.99
70902;BME280;58548;47.210;8.618;2024-01-30T01:49:07;95445.38;;;10.42;35.47
70902;BME280;58548;47.210;8.618;2024-01-30T01:51:35;95418.00;;;10.28;35.57
70902;BME280;58548;47.210;8.618;2024-01-30T01:54:05;95451.09;;;10.46;35.47
70902;BME280;58548;47.210;8.618;2024-01-30T01:56:34;95446.19;;;10.43;35.13
70902;BME280;58548;47.210;8.618;2024-01-30T01:59:05;95461.44;;;10.55;35.20
70902;BME280;58548;47.210;8.618;2024-01-30T02:01:36;95468.63;;;10.53;35.60
70902;BME280;58548;47.210;8.618;2024-01-30T02:04:03;95416.53;;;10.25;35.19
70902;BME280;58548;47.210;8.618;2024-01-30T02:06:29;95462.59;;;10.53;34.81
70902;BME280;58548;47.210;8.618;2024-01-30T02:08:55;95440.06;;;10.34;35.16
70902;BME280;58548;47.210;8.618;2024-01-30T02:11:24;95464.16;;;10.46;35.18
70902;BME280;58548;47.210;8.618;2024-01-30T02:13:52;95451.72;;;10.39;34.76
70902;BME280;58548;47.210;8.618;2024-01-30T02:16:22;95458.94;;;10.46;34.94
70902;BME280;58548;47.210;8.618;2024-01-30T02:18:48;95448.31;;;10.39;35.35
70902;BME280;58548;47.210;8.618;2024-01-30T02:21:16;95449.25;;;10.38;35.01
70902;BME280;58548;47.210;8.618;2024-01-30T02:23:46;95459.56;;;10.39;34.62
70902;BME280;58548;47.210;8.618;2024-01-30T02:26:13;95457.78;;;10.40;34.72
70902;BME280;58548;47.210;8.618;2024-01-30T02:28:41;95469.25;;;10.47;34.89
70902;BME280;58548;47.210;8.618;2024-01-30T02:31:07;95450.06;;;10.38;34.66
70902;BME280;58548;47.210;8.618;2024-01-30T02:33:33;95443.66;;;10.33;34.74
70902;BME280;58548;47.210;8.618;2024-01-30T02:35:59;95437.25;;;10.27;34.47
70902;BME280;58548;47.210;8.618;2024-01-30T02:38:25;95449.19;;;10.30;34.78
70902;BME280;58548;47.210;8.618;2024-01-30T02:40:54;95460.66;;;10.37;34.47
70902;BME280;58548;47.210;8.618;2024-01-30T02:43:21;95435.13;;;10.22;34.63
70902;BME280;58548;47.210;8.618;2024-01-30T02:45:49;95443.75;;;10.23;35.24
70902;BME280;58548;47.210;8.618;2024-01-30T02:48:20;95430.34;;;10.18;35.06
70902;BME280;58548;47.210;8.618;2024-01-30T02:50:46;95454.25;;;10.31;34.97
70902;BME280;58548;47.210;8.618;2024-01-30T02:53:12;95448.50;;;10.27;35.13
70902;BME280;58548;47.210;8.618;2024-01-30T02:55:45;95457.25;;;10.36;34.61
70902;BME280;58548;47.210;8.618;2024-01-30T02:58:16;95453.97;;;10.34;34.38
70902;BME280;58548;47.210;8.618;2024-01-30T03:00:44;95443.50;;;10.34;35.10
70902;BME280;58548;47.210;8.618;2024-01-30T03:03:10;95445.16;;;10.35;35.07
70902;BME280;58548;47.210;8.618;2024-01-30T03:05:37;95451.56;;;10.41;34.32
70902;BME280;58548;47.210;8.618;2024-01-30T03:08:04;95417.50;;;10.24;34.75
70902;BME280;58548;47.210;8.618;2024-01-30T03:10:30;95433.88;;;10.35;35.00
70902;BME280;58548;47.210;8.618;2024-01-30T03:13:00;95424.88;;;10.29;35.00
70902;BME280;58548;47.210;8.618;2024-01-30T03:15:26;95418.63;;;10.22;35.03
70902;BME280;58548;47.210;8.618;2024-01-30T03:17:55;95433.38;;;10.31;34.84
70902;BME280;58548;47.210;8.618;2024-01-30T03:20:23;95418.31;;;10.25;35.09
70902;BME280;58548;47.210;8.618;2024-01-30T03:22:50;95434.34;;;10.30;35.39
70902;BME280;58548;47.210;8.618;2024-01-30T03:25:16;95422.50;;;10.18;35.20
70902;BME280;58548;47.210;8.618;2024-01-30T03:27:42;95436.66;;;10.33;35.26
70902;BME280;58548;47.210;8.618;2024-01-30T03:30:08;95384.88;;;9.94;35.21
70902;BME280;58548;47.210;8.618;2024-01-30T03:32:34;95440.53;;;10.29;35.72
70902;BME280;58548;47.210;8.618;2024-01-30T03:35:00;95441.03;;;10.33;35.74
70902;BME280;58548;47.210;8.618;2024-01-30T03:37:28;95437.56;;;10.24;35.40
70902;BME280;58548;47.210;8.618;2024-01-30T03:39:56;95444.13;;;10.28;35.80
70902;BME280;58548;47.210;8.618;2024-01-30T03:42:22;95450.16;;;10.29;35.83
70902;BME280;58548;47.210;8.618;2024-01-30T03:44:48;95435.13;;;10.22;35.67
70902;BME280;58548;47.210;8.618;2024-01-30T03:47:19;95405.66;;;10.04;35.02
70902;BME280;58548;47.210;8.618;2024-01-30T03:49:50;95412.03;;;10.09;35.58
70902;BME280;58548;47.210;8.618;2024-01-30T03:52:16;95442.13;;;10.22;35.54
70902;BME280;58548;47.210;8.618;2024-01-30T03:54:42;95432.31;;;10.16;35.80
70902;BME280;58548;47.210;8.618;2024-01-30T03:57:11;95443.09;;;10.21;34.98
70902;BME280;58548;47.210;8.618;2024-01-30T03:59:37;95429.16;;;10.12;35.53
70902;BME280;58548;47.210;8.618;2024-01-30T04:02:10;95406.56;;;9.94;35.01
70902;BME280;58548;47.210;8.618;2024-01-30T04:04:36;95429.28;;;10.02;35.29
70902;BME280;58548;47.210;8.618;2024-01-30T04:07:03;95423.75;;;10.05;35.08
70902;BME280;58548;47.210;8.618;2024-01-30T04:09:34;95426.88;;;10.09;35.46
70902;BME280;58548;47.210;8.618;2024-01-30T04:12:01;95420.97;;;10.07;35.68
70902;BME280;58548;47.210;8.618;2024-01-30T04:14:28;95445.38;;;10.16;35.24
70902;BME280;58548;47.210;8.618;2024-01-30T04:16:54;95411.97;;;10.01;35.47
70902;BME280;58548;47.210;8.618;2024-01-30T04:19:20;95435.56;;;10.18;35.39
70902;BME280;58548;47.210;8.618;2024-01-30T04:21:46;95422.78;;;10.06;34.92
70902;BME280;58548;47.210;8.618;2024-01-30T04:24:14;95445.03;;;10.19;35.20
70902;BME280;58548;47.210;8.618;2024-01-30T04:26:45;95414.44;;;10.03;34.87
70902;BME280;58548;47.210;8.618;2024-01-30T04:29:10;95413.91;;;9.99;35.66
70902;BME280;58548;47.210;8.618;2024-01-30T04:31:36;95416.59;;;10.07;35.43
70902;BME280;58548;47.210;8.618;2024-01-30T04:34:05;95440.78;;;10.18;34.78
70902;BME280;58548;47.210;8.618;2024-01-30T04:36:31;95431.66;;;10.14;34.97
70902;BME280;58548;47.210;8.618;2024-01-30T04:38:57;95439.31;;;10.15;35.03
70902;BME280;58548;47.210;8.618;2024-01-30T04:41:23;95434.25;;;10.14;35.62
70902;BME280;58548;47.210;8.618;2024-01-30T04:43:49;95409.81;;;9.96;35.75
70902;BME280;58548;47.210;8.618;2024-01-30T04:46:15;95434.94;;;10.16;35.99
70902;BME280;58548;47.210;8.618;2024-01-30T04:48:43;95421.81;;;10.07;35.59
70902;BME280;58548;47.210;8.618;2024-01-30T04:51:09;95420.16;;;10.06;36.02
70902;BME280;58548;47.210;8.618;2024-01-30T04:53:35;95402.19;;;10.03;35.44
70902;BME280;58548;47.210;8.618;2024-01-30T04:56:04;95431.25;;;10.26;35.08
70902;BME280;58548;47.210;8.618;2024-01-30T04:58:30;95435.31;;;10.29;34.91
70902;BME280;58548;47.210;8.618;2024-01-30T05:00:59;95389.81;;;10.05;35.11
70902;BME280;58548;47.210;8.618;2024-01-30T05:03:25;95430.41;;;10.26;35.26
70902;BME280;58548;47.210;8.618;2024-01-30T05:05:51;95431.13;;;10.36;35.50
70902;BME280;58548;47.210;8.618;2024-01-30T05:08:19;95432.78;;;10.37;35.03
70902;BME280;58548;47.210;8.618;2024-01-30T05:10:48;95443.88;;;10.39;34.92
70902;BME280;58548;47.210;8.618;2024-01-30T05:13:13;95433.06;;;10.34;35.46
70902;BME280;58548;47.210;8.618;2024-01-30T05:15:39;95449.78;;;10.41;34.83
70902;BME280;58548;47.210;8.618;2024-01-30T05:18:05;95406.84;;;10.18;35.40
70902;BME280;58548;47.210;8.618;2024-01-30T05:20:31;95434.72;;;10.35;35.58
70902;BME280;58548;47.210;8.618;2024-01-30T05:22:58;95433.69;;;10.28;35.39
70902;BME280;58548;47.210;8.618;2024-01-30T05:25:24;95407.19;;;10.15;35.38
70902;BME280;58548;47.210;8.618;2024-01-30T05:27:52;95454.69;;;10.45;35.13
70902;BME280;58548;47.210;8.618;2024-01-30T05:30:18;95446.50;;;10.39;35.23
70902;BME280;58548;47.210;8.618;2024-01-30T05:32:45;95444.72;;;10.40;34.81
70902;BME280;58548;47.210;8.618;2024-01-30T05:35:13;95428.47;;;10.28;35.45
70902;BME280;58548;47.210;8.618;2024-01-30T05:37:39;95454.69;;;10.45;35.40
70902;BME280;58548;47.210;8.618;2024-01-30T05:40:05;95457.97;;;10.47;34.87
70902;BME280;58548;47.210;8.618;2024-01-30T05:42:31;95445.16;;;10.35;35.15
70902;BME280;58548;47.210;8.618;2024-01-30T05:44:57;95450.06;;;10.38;35.07
70902;BME280;58548;47.210;8.618;2024-01-30T05:47:25;95452.03;;;10.36;34.89
70902;BME280;58548;47.210;8.618;2024-01-30T05:49:52;95437.56;;;10.24;35.09
70902;BME280;58548;47.210;8.618;2024-01-30T05:52:18;95464.09;;;10.37;34.98
70902;BME280;58548;47.210;8.618;2024-01-30T05:54:44;95451.28;;;10.26;35.12
70902;BME280;58548;47.210;8.618;2024-01-30T05:57:10;95470.59;;;10.33;34.72
70902;BME280;58548;47.210;8.618;2024-01-30T05:59:40;95462.22;;;10.30;34.87
70902;BME280;58548;47.210;8.618;2024-01-30T06:02:06;95450.88;;;10.13;35.46
70902;BME280;58548;47.210;8.618;2024-01-30T06:04:32;95475.47;;;10.28;35.46
70902;BME280;58548;47.210;8.618;2024-01-30T06:06:58;95418.13;;;9.92;35.11
70902;BME280;58548;47.210;8.618;2024-01-30T06:09:28;95476.44;;;10.27;34.98
70902;BME280;58548;47.210;8.618;2024-01-30T06:11:54;95469.50;;;10.18;35.22
70902;BME280;58548;47.210;8.618;2024-01-30T06:14:22;95480.97;;;10.25;34.97
70902;BME280;58548;47.210;8.618;2024-01-30T06:16:49;95440.00;;;9.99;35.43
70902;BME280;58548;47.210;8.618;2024-01-30T06:19:17;95477.09;;;10.29;35.74
70902;BME280;58548;47.210;8.618;2024-01-30T06:21:44;95478.00;;;10.20;35.59
70902;BME280;58548;47.210;8.618;2024-01-30T06:24:12;95480.31;;;10.23;35.66
70902;BME280;58548;47.210;8.618;2024-01-30T06:26:38;95484.56;;;10.24;35.35
70902;BME280;58548;47.210;8.618;2024-01-30T06:29:05;95463.19;;;10.02;35.01
70902;BME280;58548;47.210;8.618;2024-01-30T06:31:31;95455.00;;;9.97;35.68
70902;BME280;58548;47.210;8.618;2024-01-30T06:33:59;95491.53;;;10.15;35.19
70902;BME280;58548;47.210;8.618;2024-01-30T06:36:27;95471.69;;;10.04;35.77
70902;BME280;58548;47.210;8.618;2024-01-30T06:38:55;95475.47;;;10.10;35.24
70902;BME280;58548;47.210;8.618;2024-01-30T06:41:23;95488.44;;;10.20;35.37
70902;BME280;58548;47.210;8.618;2024-01-30T06:43:49;95460.75;;;10.01;35.55
70902;BME280;58548;47.210;8.618;2024-01-30T06:46:18;95472.56;;;10.13;34.99
70902;BME280;58548;47.210;8.618;2024-01-30T06:48:43;95497.31;;;10.27;35.40
70902;BME280;58548;47.210;8.618;2024-01-30T06:51:15;95496.19;;;10.30;35.91
70902;BME280;58548;47.210;8.618;2024-01-30T06:53:46;95489.47;;;10.27;35.18
70902;BME280;58548;47.210;8.618;2024-01-30T06:56:14;95495.75;;;10.34;35.51
70902;BME280;58548;47.210;8.618;2024-01-30T06:58:40;95496.09;;;10.39;35.76
70902;BME280;58548;47.210;8.618;2024-01-30T07:01:06;95473.66;;;10.29;35.83
70902;BME280;58548;47.210;8.618;2024-01-30T07:03:32;95482.03;;;10.32;35.51
70902;BME280;58548;47.210;8.618;2024-01-30T07:05:58;95471.56;;;10.32;35.08
70902;BME280;58548;47.210;8.618;2024-01-30T07:08:26;95504.69;;;10.50;35.50
70902;BME280;58548;47.210;8.618;2024-01-30T07:10:52;95505.34;;;10.52;35.33
70902;BME280;58548;47.210;8.618;2024-01-30T07:13:20;95505.72;;;10.57;35.13
70902;BME280;58548;47.210;8.618;2024-01-30T07:15:49;95514.56;;;10.64;34.99
70902;BME280;58548;47.210;8.618;2024-01-30T07:18:15;95500.81;;;10.62;34.90
70902;BME280;58548;47.210;8.618;2024-01-30T07:20:41;95500.69;;;10.64;35.01
70902;BME280;58548;47.210;8.618;2024-01-30T07:23:13;95476.16;;;10.56;34.46
70902;BME280;58548;47.210;8.618;2024-01-30T07:25:41;95523.81;;;10.85;35.16
70902;BME280;58548;47.210;8.618;2024-01-30T07:28:12;95489.16;;;10.75;34.81
70902;BME280;58548;47.210;8.618;2024-01-30T07:30:42;95523.56;;;10.96;34.75
70902;BME280;58548;47.210;8.618;2024-01-30T07:33:08;95518.50;;;11.03;35.13
70902;BME280;58548;47.210;8.618;2024-01-30T07:35:35;95496.44;;;10.97;34.97
70902;BME280;58548;47.210;8.618;2024-01-30T07:38:04;95519.41;;;11.28;34.79
70902;BME280;58548;47.210;8.618;2024-01-30T07:40:33;95503.41;;;11.31;34.96
70902;BME280;58548;47.210;8.618;2024-01-30T07:42:58;95509.53;;;11.57;34.98
70902;BME280;58548;47.210;8.618;2024-01-30T07:45:24;95525.94;;;11.92;34.70
70902;BME280;58548;47.210;8.618;2024-01-30T07:47:54;95524.50;;;12.14;34.98
70902;BME280;58548;47.210;8.618;2024-01-30T07:50:20;95496.34;;;12.16;34.58
70902;BME280;58548;47.210;8.618;2024-01-30T07:52:47;95485.88;;;12.33;34.60
70902;BME280;58548;47.210;8.618;2024-01-30T07:55:21;95520.53;;;12.68;34.33
70902;BME280;58548;47.210;8.618;2024-01-30T07:57:55;95523.13;;;12.85;33.50
70902;BME280;58548;47.210;8.618;2024-01-30T08:00:21;95529.28;;;13.08;33.10
70902;BME280;58548;47.210;8.618;2024-01-30T08:02:47;95528.09;;;13.19;33.20
70902;BME280;58548;47.210;8.618;2024-01-30T08:05:14;95509.88;;;13.18;32.98
70902;BME280;58548;47.210;8.618;2024-01-30T08:07:43;95515.88;;;13.35;33.36
70902;BME280;58548;47.210;8.618;2024-01-30T08:10:11;95537.59;;;13.60;33.06
70902;BME280;58548;47.210;8.618;2024-01-30T08:12:41;95502.81;;;13.58;32.93
70902;BME280;58548;47.210;8.618;2024-01-30T08:15:07;95520.47;;;13.96;32.66
70902;BME280;58548;47.210;8.618;2024-01-30T08:17:34;95502.78;;;14.13;32.59
70902;BME280;58548;47.210;8.618;2024-01-30T08:20:00;95520.94;;;14.61;32.67
70902;BME280;58548;47.210;8.618;2024-01-30T08:22:26;95526.81;;;15.16;32.16
70902;BME280;58548;47.210;8.618;2024-01-30T08:24:54;95519.66;;;15.62;31.48
70902;BME280;58548;47.210;8.618;2024-01-30T08:27:22;95530.75;;;16.37;31.07
70902;BME280;58548;47.210;8.618;2024-01-30T08:29:53;95530.38;;;16.97;29.59
70902;BME280;58548;47.210;8.618;2024-01-30T08:32:24;95511.09;;;17.39;28.99
70902;BME280;58548;47.210;8.618;2024-01-30T08:34:52;95474.63;;;17.69;28.13
70902;BME280;58548;47.210;8.618;2024-01-30T08:37:18;95520.72;;;18.56;27.38
70902;BME280;58548;47.210;8.618;2024-01-30T08:39:47;95519.63;;;19.10;27.03
70902;BME280;58548;47.210;8.618;2024-01-30T08:42:13;95537.91;;;19.84;26.73
70902;BME280;58548;47.210;8.618;2024-01-30T08:44:39;95539.59;;;20.43;25.28
70902;BME280;58548;47.210;8.618;2024-01-30T08:47:05;95547.91;;;21.04;24.49
70902;BME280;58548;47.210;8.618;2024-01-30T08:49:31;95517.78;;;21.47;23.73
70902;BME280;58548;47.210;8.618;2024-01-30T08:52:00;95483.28;;;21.78;22.35
70902;BME280;58548;47.210;8.618;2024-01-30T08:54:31;95541.72;;;22.69;22.37
70902;BME280;58548;47.210;8.618;2024-01-30T08:57:01;95554.03;;;23.30;22.58
70902;BME280;58548;47.210;8.618;2024-01-30T08:59:30;95549.25;;;23.85;21.83
70902;BME280;58548;47.210;8.618;2024-01-30T09:02:02;95534.84;;;24.27;20.36
70902;BME280;58548;47.210;8.618;2024-01-30T09:04:33;95543.16;;;24.76;19.74
70902;BME280;58548;47.210;8.618;2024-01-30T09:06:59;95483.34;;;24.77;19.29
70902;BME280;58548;47.210;8.618;2024-01-30T09:09:30;95545.31;;;25.53;18.44
70902;BME280;58548;47.210;8.618;2024-01-30T09:11:56;95541.31;;;25.78;18.36
70902;BME280;58548;47.210;8.618;2024-01-30T09:14:23;95530.22;;;25.91;18.36
70902;BME280;58548;47.210;8.618;2024-01-30T09:16:50;95517.19;;;26.00;18.04
70902;BME280;58548;47.210;8.618;2024-01-30T09:19:18;95550.38;;;26.21;17.69
70902;BME280;58548;47.210;8.618;2024-01-30T09:21:44;95524.38;;;25.94;17.30
70902;BME280;58548;47.210;8.618;2024-01-30T09:24:11;95555.44;;;25.95;17.09
70902;BME280;58548;47.210;8.618;2024-01-30T09:26:37;95542.13;;;25.78;17.42
70902;BME280;58548;47.210;8.618;2024-01-30T09:29:02;95551.06;;;25.89;17.91
70902;BME280;58548;47.210;8.618;2024-01-30T09:31:31;95542.81;;;25.91;16.85
70902;BME280;58548;47.210;8.618;2024-01-30T09:33:59;95555.06;;;25.86;16.25
70902;BME280;58548;47.210;8.618;2024-01-30T09:36:30;95546.34;;;25.52;17.06
70902;BME280;58548;47.210;8.618;2024-01-30T09:38:55;95540.06;;;25.24;17.11
70902;BME280;58548;47.210;8.618;2024-01-30T09:41:24;95559.63;;;25.24;18.39
70902;BME280;58548;47.210;8.618;2024-01-30T09:43:51;95541.19;;;25.45;17.98
70902;BME280;58548;47.210;8.618;2024-01-30T09:46:21;95527.31;;;25.93;17.25
70902;BME280;58548;47.210;8.618;2024-01-30T09:48:50;95546.50;;;26.67;17.28
70902;BME280;58548;47.210;8.618;2024-01-30T09:51:17;95528.88;;;27.14;16.59
70902;BME280;58548;47.210;8.618;2024-01-30T09:53:44;95545.84;;;27.78;15.73
70902;BME280;58548;47.210;8.618;2024-01-30T09:56:12;95547.88;;;28.29;16.21
70902;BME280;58548;47.210;8.618;2024-01-30T09:58:41;95559.22;;;28.88;15.60
70902;BME280;58548;47.210;8.618;2024-01-30T10:01:17;95554.84;;;29.33;14.42
70902;BME280;58548;47.210;8.618;2024-01-30T10:03:47;95559.00;;;29.81;14.56
70902;BME280;58548;47.210;8.618;2024-01-30T10:06:16;95541.69;;;30.08;13.70
70902;BME280;58548;47.210;8.618;2024-01-30T10:08:43;95538.81;;;30.34;13.38
70902;BME280;58548;47.210;8.618;2024-01-30T10:11:11;95538.63;;;30.65;13.63
70902;BME280;58548;47.210;8.618;2024-01-30T10:13:38;95559.81;;;31.06;14.37
70902;BME280;58548;47.210;8.618;2024-01-30T10:16:14;95567.13;;;31.35;13.20
70902;BME280;58548;47.210;8.618;2024-01-30T10:18:41;95536.94;;;31.33;13.29
70902;BME280;58548;47.210;8.618;2024-01-30T10:21:09;95550.56;;;31.66;13.63
70902;BME280;58548;47.210;8.618;2024-01-30T10:23:38;95527.19;;;31.81;12.72
70902;BME280;58548;47.210;8.618;2024-01-30T10:26:08;95564.34;;;32.32;12.73
70902;BME280;58548;47.210;8.618;2024-01-30T10:28:34;95546.22;;;32.33;12.17
70902;BME280;58548;47.210;8.618;2024-01-30T10:31:02;95553.44;;;32.57;12.48
70902;BME280;58548;47.210;8.618;2024-01-30T10:33:35;95567.47;;;32.78;11.81
70902;BME280;58548;47.210;8.618;2024-01-30T10:36:04;95556.06;;;32.81;11.90
70902;BME280;58548;47.210;8.618;2024-01-30T10:38:39;95566.78;;;33.19;12.07
70902;BME280;58548;47.210;8.618;2024-01-30T10:41:08;95567.44;;;33.44;11.31
70902;BME280;58548;47.210;8.618;2024-01-30T10:43:50;95566.44;;;33.68;11.38
70902;BME280;58548;47.210;8.618;2024-01-30T10:46:20;95553.78;;;33.77;10.09
70902;BME280;58548;47.210;8.618;2024-01-30T10:49:08;95564.13;;;33.89;11.06
70902;BME280;58548;47.210;8.618;2024-01-30T10:51:37;95538.13;;;34.02;10.79
70902;BME280;58548;47.210;8.618;2024-01-30T10:54:06;95554.69;;;34.37;9.72
70902;BME280;58548;47.210;8.618;2024-01-30T10:56:35;95557.50;;;34.69;10.50
70902;BME280;58548;47.210;8.618;2024-01-30T10:59:01;95539.31;;;34.92;9.67
70902;BME280;58548;47.210;8.618;2024-01-30T11:01:30;95552.81;;;35.38;10.08
70902;BME280;58548;47.210;8.618;2024-01-30T11:03:58;95550.22;;;35.64;9.07
70902;BME280;58548;47.210;8.618;2024-01-30T11:06:27;95540.03;;;35.87;9.02
70902;BME280;58548;47.210;8.618;2024-01-30T11:09:03;95549.22;;;36.09;8.92
70902;BME280;58548;47.210;8.618;2024-01-30T11:11:31;95548.59;;;36.21;9.26
70902;BME280;58548;47.210;8.618;2024-01-30T11:14:00;95548.28;;;36.31;8.59
70902;BME280;58548;47.210;8.618;2024-01-30T11:16:32;95538.19;;;36.32;8.76
70902;BME280;58548;47.210;8.618;2024-01-30T11:19:00;95511.63;;;36.20;8.34
70902;BME280;58548;47.210;8.618;2024-01-30T11:21:27;95545.72;;;36.35;8.63
70902;BME280;58548;47.210;8.618;2024-01-30T11:23:57;95524.13;;;36.21;8.50
70902;BME280;58548;47.210;8.618;2024-01-30T11:26:31;95530.34;;;36.04;8.21
70902;BME280;58548;47.210;8.618;2024-01-30T11:29:07;95537.72;;;35.54;8.31
70902;BME280;58548;47.210;8.618;2024-01-30T11:31:38;95541.16;;;35.06;9.31
70902;BME280;58548;47.210;8.618;2024-01-30T11:34:08;95510.16;;;34.52;9.00
70902;BME280;58548;47.210;8.618;2024-01-30T11:36:35;95464.19;;;33.88;9.25
70902;BME280;58548;47.210;8.618;2024-01-30T11:39:05;95525.28;;;33.94;9.96
70902;BME280;58548;47.210;8.618;2024-01-30T11:41:36;95511.03;;;33.74;10.07
70902;BME280;58548;47.210;8.618;2024-01-30T11:44:05;95500.53;;;33.45;10.27
70902;BME280;58548;47.210;8.618;2024-01-30T11:46:32;95520.47;;;33.35;9.87
70902;BME280;58548;47.210;8.618;2024-01-30T11:48:58;95480.72;;;32.88;10.01
70902;BME280;58548;47.210;8.618;2024-01-30T11:51:33;95510.72;;;32.73;10.88
70902;BME280;58548;47.210;8.618;2024-01-30T11:54:01;95520.41;;;32.27;10.68
70902;BME280;58548;47.210;8.618;2024-01-30T11:56:30;95485.97;;;31.51;11.40
70902;BME280;58548;47.210;8.618;2024-01-30T11:59:01;95514.28;;;31.29;11.09
70902;BME280;58548;47.210;8.618;2024-01-30T12:01:27;95511.03;;;31.03;11.79
70902;BME280;58548;47.210;8.618;2024-01-30T12:03:53;95517.19;;;31.08;11.83
70902;BME280;58548;47.210;8.618;2024-01-30T12:06:20;95513.47;;;31.28;11.87
70902;BME280;58548;47.210;8.618;2024-01-30T12:08:59;95491.47;;;31.40;11.62
70902;BME280;58548;47.210;8.618;2024-01-30T12:11:31;95511.69;;;31.67;11.16
70902;BME280;58548;47.210;8.618;2024-01-30T12:14:02;95504.06;;;31.75;11.72
70902;BME280;58548;47.210;8.618;2024-01-30T12:16:31;95515.16;;;32.11;11.72
70902;BME280;58548;47.210;8.618;2024-01-30T12:19:00;95514.44;;;32.44;11.59
70902;BME280;58548;47.210;8.618;2024-01-30T12:21:31;95499.16;;;32.86;11.26
70902;BME280;58548;47.210;8.618;2024-01-30T12:23:57;95469.75;;;32.99;11.58
70902;BME280;58548;47.210;8.618;2024-01-30T12:26:26;95488.53;;;33.37;11.11
70902;BME280;58548;47.210;8.618;2024-01-30T12:28:56;95481.41;;;33.55;10.63
70902;BME280;58548;47.210;8.618;2024-01-30T12:31:32;95496.38;;;34.03;10.16
70902;BME280;58548;47.210;8.618;2024-01-30T12:34:01;95503.47;;;34.50;10.64
70902;BME280;58548;47.210;8.618;2024-01-30T12:36:29;95489.94;;;34.81;9.68
70902;BME280;58548;47.210;8.618;2024-01-30T12:38:57;95494.69;;;35.07;9.66
70902;BME280;58548;47.210;8.618;2024-01-30T12:41:26;95506.97;;;35.36;9.07
70902;BME280;58548;47.210;8.618;2024-01-30T12:43:57;95495.13;;;35.41;9.51
70902;BME280;58548;47.210;8.618;2024-01-30T12:46:29;95469.69;;;35.19;8.65
70902;BME280;58548;47.210;8.618;2024-01-30T12:48:55;95482.19;;;34.97;8.60
70902;BME280;58548;47.210;8.618;2024-01-30T12:51:22;95496.28;;;34.77;9.28
70902;BME280;58548;47.210;8.618;2024-01-30T12:53:48;95469.53;;;34.61;9.67
70902;BME280;58548;47.210;8.618;2024-01-30T12:56:16;95466.03;;;34.61;9.49
70902;BME280;58548;47.210;8.618;2024-01-30T12:58:43;95492.44;;;34.78;9.54
70902;BME280;58548;47.210;8.618;2024-01-30T13:01:11;95497.75;;;34.83;10.00
70902;BME280;58548;47.210;8.618;2024-01-30T13:03:39;95492.44;;;34.78;9.49
70902;BME280;58548;47.210;8.618;2024-01-30T13:06:12;95470.91;;;34.72;9.79